Time;durP1;ratioP1;P1;durP2;ratioP2;P2;SDS_P1;SDS_P2;PMS_P1;PMS_P2;Temp;Humidity;BMP_temperature;BMP_pressure;BME280_temperature;BME280_humidity;BME280_pressure;Samples;Min_cycle;Max_cycle;Signal;HPM_P1;HPM_P2
2022/05/30 00:01:08;;;;;;;8.95;1.50;;;;;;;18.47;32.71;97823.13;5093110;28;20035;-49
2022/05/30 00:03:40;;;;;;;7.75;1.70;;;;;;;18.44;32.80;97818.38;5091742;28;20114;-49
2022/05/30 00:06:08;;;;;;;4.03;1.13;;;;;;;18.36;32.83;97823.19;5091607;28;20036;-50
2022/05/30 00:08:35;;;;;;;9.55;1.48;;;;;;;18.38;32.62;97820.25;5092952;28;20020;-49
2022/05/30 00:11:06;;;;;;;5.90;1.83;;;;;;;18.33;32.85;97822.94;5093101;28;20028;-50
2022/05/30 00:13:33;;;;;;;6.90;1.70;;;;;;;18.25;33.00;97820.84;5092898;28;20031;-49
2022/05/30 00:16:07;;;;;;;9.93;2.17;;;;;;;18.20;33.08;97820.88;5093015;28;20058;-49
2022/05/30 00:18:33;;;;;;;6.95;1.92;;;;;;;17.99;33.39;97822.78;5092835;28;20031;-49
2022/05/30 00:20:59;;;;;;;5.63;1.20;;;;;;;17.71;33.50;97832.91;5091431;28;20023;-49
2022/05/30 00:23:25;;;;;;;7.65;2.13;;;;;;;17.32;34.07;97834.22;5092985;28;20032;-49
2022/05/30 00:25:51;;;;;;;7.78;1.58;;;;;;;16.97;34.69;97830.50;5092800;28;20061;-49
2022/05/30 00:28:18;;;;;;;7.05;1.70;;;;;;;16.70;35.38;97840.47;5092633;28;20594;-49
2022/05/30 00:30:46;;;;;;;4.85;1.50;;;;;;;16.48;35.70;97832.72;5092579;28;20012;-52
2022/05/30 00:33:12;;;;;;;7.43;1.83;;;;;;;16.42;35.98;97839.88;5092273;28;20395;-50
2022/05/30 00:35:40;;;;;;;4.63;1.50;;;;;;;16.38;36.01;97838.78;5092346;28;20016;-49
2022/05/30 00:38:06;;;;;;;7.47;1.50;;;;;;;16.18;36.57;97837.63;5090963;28;20028;-50
2022/05/30 00:40:32;;;;;;;8.75;1.80;;;;;;;16.14;37.11;97838.41;5092320;28;20571;-50
2022/05/30 00:43:22;;;;;;;2.75;1.05;;;;;;;16.01;37.13;97844.94;5091027;28;20528;-50
2022/05/30 00:45:48;;;;;;;5.72;1.58;;;;;;;15.84;37.19;97839.03;5090992;28;20016;-52
2022/05/30 00:48:15;;;;;;;5.93;1.55;;;;;;;15.89;37.58;97833.75;5092254;28;20517;-52
2022/05/30 00:50:41;;;;;;;4.55;1.45;;;;;;;16.11;37.55;97830.97;5090904;28;20055;-52
2022/05/30 00:53:07;;;;;;;7.72;2.08;;;;;;;16.43;37.37;97835.34;5092200;28;20024;-52
2022/05/30 00:55:34;;;;;;;6.50;1.38;;;;;;;16.83;36.71;97826.75;5090713;28;20024;-52
2022/05/30 00:58:02;;;;;;;6.72;1.88;;;;;;;17.03;36.18;97817.25;5092158;28;20432;-50
2022/05/30 01:00:28;;;;;;;8.00;1.85;;;;;;;17.03;36.08;97818.03;5090756;28;20052;-50
2022/05/30 01:08:28;;;;;;;5.40;2.00;;;;;;;17.19;35.76;97823.38;5092053;28;20042;-50
2022/05/30 01:10:55;;;;;;;4.13;1.50;;;;;;;17.33;35.39;97813.81;5092027;28;20024;-50
2022/05/30 01:13:21;;;;;;;9.82;1.40;;;;;;;17.33;35.53;97817.28;5091956;28;20036;-50
2022/05/30 01:15:46;;;;;;;10.93;2.22;;;;;;;17.37;35.23;97817.53;5091837;28;20397;-49
2022/05/30 01:18:31;;;;;;;10.48;1.88;;;;;;;17.40;35.34;97813.56;5090600;28;20485;-50
2022/05/30 01:21:19;;;;;;;6.13;2.20;;;;;;;17.53;35.34;97820.97;5092220;28;20024;-50
2022/05/30 01:23:53;;;;;;;15.48;2.30;;;;;;;17.65;34.93;97821.50;5091859;28;20028;-50
2022/05/30 01:26:41;;;;;;;10.68;3.00;;;;;;;17.82;34.78;97820.41;5091936;28;20046;-50
2022/05/30 01:29:16;;;;;;;8.73;2.33;;;;;;;17.84;34.73;97819.09;5091864;28;20028;-50
2022/05/30 01:31:42;;;;;;;7.35;1.60;;;;;;;17.86;34.60;97810.88;5091574;28;20044;-50
2022/05/30 01:34:08;;;;;;;5.65;1.90;;;;;;;17.91;34.39;97822.28;5090355;28;20024;-50
2022/05/30 01:36:34;;;;;;;5.45;1.35;;;;;;;17.94;34.35;97820.94;5090436;28;20028;-50
2022/05/30 01:39:01;;;;;;;7.75;1.80;;;;;;;17.96;34.36;97819.59;5090374;28;20028;-50
2022/05/30 01:41:27;;;;;;;4.47;1.50;;;;;;;17.98;34.17;97815.88;5091721;28;20020;-49
2022/05/30 01:43:56;;;;;;;4.43;1.50;;;;;;;18.09;34.22;97812.13;5091651;28;20027;-49
2022/05/30 01:46:24;;;;;;;9.52;1.45;;;;;;;18.33;33.67;97817.63;5091656;28;20016;-50
2022/05/30 01:48:51;;;;;;;5.72;1.40;;;;;;;18.39;33.46;97818.41;5091667;28;20016;-50
2022/05/30 01:51:20;;;;;;;8.20;2.13;;;;;;;18.38;33.46;97816.81;5093363;28;20016;-49
2022/05/30 01:53:46;;;;;;;10.57;1.98;;;;;;;18.42;33.42;97823.97;5094226;28;20381;-50
2022/05/30 01:56:14;;;;;;;8.40;2.65;;;;;;;18.51;33.27;97824.19;5095483;28;20099;-50
2022/05/30 01:58:40;;;;;;;4.53;1.73;;;;;;;18.52;33.10;97813.28;5095560;28;20112;-49
2022/05/30 02:01:16;;;;;;;6.85;1.85;;;;;;;18.55;33.09;97814.59;5095448;28;20018;-50
2022/05/30 02:03:44;;;;;;;12.70;2.28;;;;;;;18.58;33.18;97813.28;5095412;28;20028;-50
2022/05/30 02:06:10;;;;;;;7.75;1.58;;;;;;;18.69;32.91;97815.59;5095348;28;20436;-50
2022/05/30 02:08:38;;;;;;;8.80;1.70;;;;;;;18.88;32.67;97807.00;5095354;28;20020;-50
2022/05/30 02:11:08;;;;;;;6.47;1.65;;;;;;;18.89;32.21;97817.34;5095224;28;20039;-50
2022/05/30 02:13:34;;;;;;;5.18;1.17;;;;;;;18.70;32.56;97825.16;5095131;28;20446;-50
2022/05/30 02:18:47;;;;;;;15.18;2.00;;;;;;;18.63;32.67;97827.31;5095176;28;20062;-49
2022/05/30 02:21:13;;;;;;;2.58;1.60;;;;;;;18.66;32.61;97826.78;5095081;28;20020;-50
2022/05/30 02:23:39;;;;;;;6.82;1.55;;;;;;;18.50;32.64;97830.56;5093769;28;20081;-49
2022/05/30 02:26:05;;;;;;;7.20;1.75;;;;;;;18.35;32.73;97831.41;5094999;28;20016;-49
2022/05/30 02:28:31;;;;;;;3.83;1.42;;;;;;;18.12;32.91;97836.28;5093688;28;20043;-50
2022/05/30 02:30:57;;;;;;;5.70;2.22;;;;;;;17.74;34.75;97835.00;5094666;28;20069;-50
2022/05/30 02:38:51;;;;;;;5.65;2.45;;;;;;;16.30;38.07;97834.00;5094773;28;20092;-49
2022/05/30 02:41:20;;;;;;;9.52;1.42;;;;;;;15.95;38.75;97841.47;5093314;28;20481;-49
2022/05/30 02:43:46;;;;;;;2.50;1.40;;;;;;;15.87;38.83;97841.16;5094680;28;20013;-49
2022/05/30 02:46:12;;;;;;;5.13;1.52;;;;;;;15.73;39.68;97848.72;5094839;28;20158;-52
2022/05/30 02:48:38;;;;;;;6.68;1.60;;;;;;;15.50;40.01;97845.38;5093148;28;20027;-52
2022/05/30 02:51:04;;;;;;;6.32;2.60;;;;;;;15.47;40.54;97845.06;5093177;28;20028;-52
2022/05/30 02:53:30;;;;;;;4.05;1.48;;;;;;;15.51;40.15;97846.16;5094432;28;20028;-51
2022/05/30 02:55:57;;;;;;;9.57;1.83;;;;;;;15.58;39.87;97842.25;5094326;28;20027;-52
2022/05/30 02:58:23;;;;;;;6.93;1.80;;;;;;;15.72;39.77;97836.53;5094253;28;20409;-52
2022/05/30 03:00:48;;;;;;;4.57;1.58;;;;;;;15.87;39.24;97838.50;5094368;28;20461;-51
2022/05/30 03:03:14;;;;;;;5.80;1.50;;;;;;;16.06;38.65;97839.69;5094188;28;20016;-52
2022/05/30 03:05:40;;;;;;;7.75;1.55;;;;;;;16.30;38.18;97841.94;5094262;28;20626;-52
2022/05/30 03:08:08;;;;;;;6.93;1.67;;;;;;;16.68;37.61;97845.22;5094230;28;20032;-52
2022/05/30 03:10:34;;;;;;;4.40;1.63;;;;;;;17.08;36.93;97849.06;5092753;28;20028;-50
2022/05/30 03:12:59;;;;;;;4.65;1.60;;;;;;;17.23;36.63;97843.78;5094073;28;20020;-49
2022/05/30 03:15:27;;;;;;;5.90;1.70;;;;;;;17.47;36.17;97845.94;5093989;28;20031;-49
2022/05/30 03:17:53;;;;;;;5.35;1.42;;;;;;;17.72;35.64;97845.88;5094276;28;20423;-50
2022/05/30 03:20:19;;;;;;;6.55;1.77;;;;;;;17.74;35.34;97837.66;5092575;28;20084;-50
2022/05/30 03:22:46;;;;;;;3.72;1.30;;;;;;;17.50;35.50;97842.72;5093935;28;20016;-50
2022/05/30 03:25:15;;;;;;;4.57;1.85;;;;;;;17.43;35.93;97850.16;5093856;28;20030;-50
2022/05/30 03:27:40;;;;;;;12.75;2.05;;;;;;;17.48;35.85;97850.94;5093859;28;20112;-49
2022/05/30 03:30:07;;;;;;;4.75;1.58;;;;;;;17.43;35.69;97850.16;5093708;28;20055;-49
2022/05/30 03:32:33;;;;;;;4.63;1.63;;;;;;;17.29;35.60;97848.03;5092197;28;20067;-50
2022/05/30 03:34:59;;;;;;;2.63;1.38;;;;;;;17.21;35.67;97861.03;5092272;28;20052;-50
2022/05/30 03:37:26;;;;;;;8.13;1.70;;;;;;;17.12;36.12;97858.91;5093583;28;20024;-50
2022/05/30 03:39:51;;;;;;;7.20;2.10;;;;;;;17.13;36.35;97854.38;5093528;28;20099;-50
2022/05/30 03:42:20;;;;;;;6.32;1.88;;;;;;;17.11;36.56;97851.19;5093500;28;20063;-50
2022/05/30 03:44:45;;;;;;;6.47;1.73;;;;;;;17.12;36.30;97852.78;5093493;28;20367;-49
2022/05/30 03:47:13;;;;;;;5.38;1.83;;;;;;;17.12;36.18;97858.06;5093398;28;20073;-50
2022/05/30 03:49:40;;;;;;;9.93;2.20;;;;;;;17.20;36.07;97854.91;5093328;28;20095;-50
2022/05/30 03:52:06;;;;;;;9.18;1.88;;;;;;;17.47;35.73;97854.66;5093288;28;20020;-50
2022/05/30 03:54:32;;;;;;;6.63;1.50;;;;;;;17.84;35.15;97860.78;5093196;28;20070;-50
2022/05/30 03:56:58;;;;;;;7.60;1.75;;;;;;;18.03;34.67;97863.66;5091901;28;20020;-50
2022/05/30 03:59:24;;;;;;;5.50;1.45;;;;;;;18.07;34.60;97865.53;5091870;28;20401;-50
2022/05/30 04:01:49;;;;;;;7.28;1.80;;;;;;;18.13;34.52;97872.41;5091856;28;20035;-50
2022/05/30 04:04:15;;;;;;;7.13;2.00;;;;;;;18.21;34.34;97872.91;5093074;28;20028;-50
2022/05/30 04:06:41;;;;;;;8.85;1.88;;;;;;;18.28;34.22;97868.13;5093044;28;20051;-50
2022/05/30 04:09:08;;;;;;;15.38;1.70;;;;;;;18.31;34.09;97867.56;5092996;28;20024;-50
2022/05/30 04:11:34;;;;;;;11.88;1.90;;;;;;;18.35;34.09;97881.88;5092944;28;20024;-50
2022/05/30 04:13:59;;;;;;;9.20;1.65;;;;;;;18.28;33.75;97878.75;5092329;28;20020;-50
2022/05/30 04:16:25;;;;;;;8.02;2.20;;;;;;;18.06;33.92;97887.81;5092862;28;20031;-50
2022/05/30 04:18:51;;;;;;;10.15;1.67;;;;;;;17.93;34.22;97891.81;5091481;28;20028;-50
2022/05/30 04:21:17;;;;;;;7.72;1.52;;;;;;;17.86;34.21;97887.84;5092760;28;20444;-50
2022/05/30 04:23:43;;;;;;;7.22;1.70;;;;;;;17.87;34.20;97884.94;5092789;28;20012;-48
2022/05/30 04:26:11;;;;;;;8.23;1.63;;;;;;;18.04;34.02;97886.50;5092545;28;20028;-47
2022/05/30 04:28:37;;;;;;;14.07;2.30;;;;;;;18.16;33.81;97887.00;5092562;28;20082;-47
2022/05/30 04:31:08;;;;;;;9.02;2.33;;;;;;;18.14;34.01;97889.91;5092240;28;20563;-48
2022/05/30 04:33:34;;;;;;;9.73;2.30;;;;;;;18.12;34.23;97892.03;5091275;28;20040;-48
2022/05/30 04:36:02;;;;;;;12.77;2.13;;;;;;;18.31;34.02;97888.81;5092391;28;20401;-50
2022/05/30 04:38:29;;;;;;;10.60;1.88;;;;;;;18.48;33.96;97891.97;5092516;28;20065;-50
2022/05/30 04:40:55;;;;;;;9.73;2.10;;;;;;;18.55;33.69;97897.78;5091102;28;20016;-50
2022/05/30 04:43:21;;;;;;;4.80;1.33;;;;;;;18.64;33.20;97905.97;5092419;28;20027;-49
2022/05/30 04:45:47;;;;;;;8.90;1.95;;;;;;;18.60;33.46;97907.59;5092368;28;20020;-50
2022/05/30 04:48:13;;;;;;;7.80;1.80;;;;;;;18.61;33.53;97914.47;5092298;28;20028;-47
2022/05/30 04:50:38;;;;;;;10.13;1.73;;;;;;;18.61;33.60;97919.81;5092311;28;20103;-50
2022/05/30 04:53:04;;;;;;;8.80;1.70;;;;;;;18.68;33.54;97920.31;5092299;28;20149;-50
2022/05/30 04:55:30;;;;;;;11.60;1.90;;;;;;;18.86;33.49;97923.47;5092424;28;20043;-50
2022/05/30 04:57:56;;;;;;;15.63;1.90;;;;;;;19.08;32.96;97928.44;5090877;28;20569;-50
2022/05/30 05:00:24;;;;;;;15.55;4.00;;;;;;;19.29;32.65;97931.75;5092179;28;20016;-49
2022/05/30 05:02:53;;;;;;;23.40;2.25;;;;;;;19.33;32.66;97930.91;5092074;28;20093;-48
2022/05/30 05:05:19;;;;;;;16.05;2.10;;;;;;;19.46;32.43;97929.53;5090689;28;20464;-50
2022/05/30 05:07:49;;;;;;;6.03;1.63;;;;;;;19.57;32.18;97943.53;5092047;28;20107;-51
2022/05/30 05:10:40;;;;;;;36.08;3.63;;;;;;;19.72;32.16;97942.69;5092002;28;20024;-50
2022/05/30 05:13:05;;;;;;;45.60;3.92;;;;;;;19.78;32.12;97940.75;5091937;28;20512;-50
2022/05/30 05:15:31;;;;;;;20.23;3.20;;;;;;;19.71;31.88;97941.88;5091838;28;20055;-50
2022/05/30 05:17:57;;;;;;;27.52;2.58;;;;;;;19.64;31.89;97944.03;5091934;28;20498;-50
2022/05/30 05:20:23;;;;;;;29.40;3.08;;;;;;;19.66;31.73;97949.88;5090540;28;20020;-50
2022/05/30 05:22:51;;;;;;;83.57;8.52;;;;;;;19.67;32.07;97955.97;5091895;28;20030;-50
2022/05/30 05:25:17;;;;;;;19.05;2.00;;;;;;;19.84;31.88;97958.28;5091995;28;20028;-50
2022/05/30 05:27:43;;;;;;;49.00;3.85;;;;;;;20.10;31.66;97959.66;5096144;28;20024;-48
2022/05/30 05:30:10;;;;;;;15.40;2.72;;;;;;;20.20;31.17;97965.97;5096007;28;20024;-48
2022/05/30 05:32:36;;;;;;;53.03;4.68;;;;;;;20.07;31.49;97960.22;5095740;28;20413;-48
2022/05/30 05:35:03;;;;;;;19.08;2.10;;;;;;;19.98;31.70;97958.44;5095871;28;20081;-49
2022/05/30 05:37:29;;;;;;;18.85;2.70;;;;;;;20.48;31.21;97954.50;5095976;28;20016;-47
2022/05/30 05:39:55;;;;;;;14.40;2.40;;;;;;;22.07;29.49;97957.72;5095881;28;20085;-47
2022/05/30 05:42:20;;;;;;;7.55;1.52;;;;;;;24.22;26.45;97954.31;5095823;28;20375;-48
2022/05/30 05:44:46;;;;;;;9.75;2.10;;;;;;;25.68;24.17;97949.63;5094449;28;20035;-48
2022/05/30 05:47:12;;;;;;;9.02;1.73;;;;;;;26.08;23.42;97957.50;5095724;28;20019;-48
2022/05/30 05:49:38;;;;;;;9.95;1.85;;;;;;;26.48;22.78;97951.03;5095739;28;20020;-49
2022/05/30 05:52:04;;;;;;;7.93;2.00;;;;;;;26.90;22.43;97954.69;5094336;28;20028;-48
2022/05/30 05:54:31;;;;;;;17.38;2.03;;;;;;;26.95;21.83;97960.97;5095548;28;20081;-48
2022/05/30 05:56:57;;;;;;;7.20;1.50;;;;;;;26.83;21.66;97959.78;5095461;28;20078;-49
2022/05/30 05:59:27;;;;;;;6.85;1.70;;;;;;;26.12;22.39;97960.34;5095542;28;20405;-49
2022/05/30 06:01:52;;;;;;;5.70;1.90;;;;;;;25.50;23.25;97961.50;5095455;28;20024;-49
2022/05/30 06:04:18;;;;;;;9.38;2.05;;;;;;;25.26;23.51;97970.81;5095403;28;20489;-48
2022/05/30 06:06:45;;;;;;;9.90;2.10;;;;;;;25.49;23.12;97968.78;5095390;28;20031;-48
2022/05/30 06:09:10;;;;;;;9.98;1.88;;;;;;;26.69;22.10;97960.00;5095322;28;20038;-48
2022/05/30 06:11:36;;;;;;;16.60;2.30;;;;;;;28.02;21.06;97961.44;5093943;28;20489;-48
2022/05/30 06:14:02;;;;;;;9.23;2.35;;;;;;;28.84;20.13;97960.66;5095051;28;20028;-49
2022/05/30 06:16:31;;;;;;;12.55;2.03;;;;;;;29.58;18.65;97964.03;5093862;28;20509;-48
2022/05/30 06:18:59;;;;;;;13.48;2.13;;;;;;;29.95;18.46;97961.16;5095072;28;20095;-49
2022/05/30 06:21:28;;;;;;;8.70;1.90;;;;;;;30.54;17.87;97962.28;5093759;28;20417;-49
2022/05/30 06:23:55;;;;;;;7.82;1.83;;;;;;;30.92;17.71;97958.16;5095033;28;20099;-49
2022/05/30 06:26:22;;;;;;;10.32;1.85;;;;;;;31.61;16.94;97961.19;5093656;28;20397;-49
2022/05/30 06:28:48;;;;;;;9.98;1.73;;;;;;;32.33;16.65;97956.28;5093727;28;20490;-49
2022/05/30 06:31:20;;;;;;;10.75;1.58;;;;;;;32.51;15.99;97957.34;5094683;28;20067;-48
2022/05/30 06:33:47;;;;;;;7.15;1.58;;;;;;;32.72;16.18;97956.13;5094879;28;20024;-49
2022/05/30 06:36:15;;;;;;;10.65;2.05;;;;;;;33.00;16.03;97967.44;5094317;28;20370;-49
2022/05/30 06:38:42;;;;;;;12.48;2.20;;;;;;;33.32;15.65;97972.53;5095101;28;20024;-48
2022/05/30 06:41:16;;;;;;;12.15;2.75;;;;;;;33.90;15.01;97971.28;5094634;28;20532;-49
2022/05/30 06:43:43;;;;;;;15.03;1.93;;;;;;;34.12;15.26;97964.13;5093504;28;20028;-49
2022/05/30 06:46:10;;;;;;;5.88;1.58;;;;;;;33.81;15.06;97971.59;5094684;28;20028;-49
2022/05/30 06:48:36;;;;;;;14.25;2.90;;;;;;;33.37;15.16;97971.44;5094612;28;20024;-48
2022/05/30 06:51:08;;;;;;;10.40;2.63;;;;;;;32.49;15.91;97967.78;5094493;28;20024;-48
2022/05/30 06:53:34;;;;;;;7.40;2.00;;;;;;;31.94;16.22;97962.56;5094523;28;20052;-49
2022/05/30 06:56:00;;;;;;;10.57;2.13;;;;;;;31.14;17.08;97975.66;5094355;28;20525;-48
2022/05/30 06:58:28;;;;;;;14.68;1.92;;;;;;;30.68;17.38;97972.66;5094411;28;20020;-48
2022/05/30 07:01:00;;;;;;;5.70;1.42;;;;;;;31.36;17.18;97979.63;5094301;28;20568;-49
2022/05/30 07:03:26;;;;;;;15.40;2.28;;;;;;;31.82;16.69;97977.09;5094414;28;20020;-49
2022/05/30 07:05:52;;;;;;;12.30;2.25;;;;;;;31.76;16.97;97980.47;5094190;28;20613;-49
2022/05/30 07:08:18;;;;;;;16.95;2.97;;;;;;;31.04;17.30;97984.34;5094529;28;20111;-49
2022/05/30 07:10:45;;;;;;;17.40;3.17;;;;;;;31.14;17.45;97983.03;5094186;28;20023;-48
2022/05/30 07:13:12;;;;;;;9.25;1.63;;;;;;;31.35;17.08;97983.50;5094065;28;20024;-49
2022/05/30 07:15:38;;;;;;;17.30;2.95;;;;;;;31.52;16.66;97985.03;5093954;28;20520;-49
2022/05/30 07:18:13;;;;;;;34.33;4.63;;;;;;;31.01;17.03;97991.28;5094118;28;20461;-49
2022/05/30 07:20:39;;;;;;;;;;;;;;;30.99;17.49;97988.13;5094509;28;20024;-49
2022/05/30 07:23:06;;;;;;;11.38;2.30;;;;;;;31.08;17.14;97995.28;5093934;28;19915;-48
2022/05/30 07:25:36;;;;;;;20.10;2.50;;;;;;;30.71;17.63;97996.34;5093852;28;20123;-49
2022/05/30 07:28:03;;;;;;;12.93;2.63;;;;;;;30.62;17.76;98003.88;5093872;28;20024;-50
2022/05/30 07:30:29;;;;;;;62.67;5.75;;;;;;;30.86;17.74;98005.59;5093768;28;20367;-48
2022/05/30 07:32:56;;;;;;;24.70;3.00;;;;;;;30.75;17.80;98008.06;5093547;28;20040;-49
2022/05/30 07:35:22;;;;;;;9.20;2.00;;;;;;;30.59;17.71;98002.66;5093503;28;20366;-48
2022/05/30 07:37:49;;;;;;;6.80;1.95;;;;;;;30.78;17.82;98001.16;5093887;28;20409;-49
2022/05/30 07:40:15;;;;;;;15.75;4.70;;;;;;;31.20;17.42;98003.28;5093566;28;20024;-48
2022/05/30 07:42:41;;;;;;;16.38;5.35;;;;;;;31.35;17.28;98012.50;5093736;28;20390;-49
2022/05/30 07:45:09;;;;;;;21.55;5.70;;;;;;;31.56;17.05;98013.00;5093336;28;20485;-51
2022/05/30 07:47:35;;;;;;;56.05;7.78;;;;;;;32.02;16.80;98015.88;5091863;28;20497;-51
2022/05/30 07:50:04;;;;;;;10.02;2.22;;;;;;;32.42;16.18;98013.88;5092680;28;20027;-49
2022/05/30 07:52:30;;;;;;;9.50;2.03;;;;;;;32.85;16.06;98009.16;5092185;28;20027;-49
2022/05/30 07:54:57;;;;;;;16.33;2.60;;;;;;;33.17;15.40;98015.09;5093152;28;20367;-50
2022/05/30 07:57:50;;;;;;;28.33;3.72;;;;;;;33.39;15.70;98023.53;5091732;28;20032;-49
2022/05/30 08:00:11;;;;;;;31.75;3.38;;;;;;;34.24;15.24;98006.66;5093021;28;20024;-50
2022/05/30 08:02:39;;;;;;;17.30;2.83;;;;;;;34.34;14.47;98003.25;5093134;28;20027;-48
2022/05/30 08:05:07;;;;;;;20.05;2.90;;;;;;;34.34;14.28;98011.44;5093024;28;20032;-49
2022/05/30 08:07:32;;;;;;;12.77;2.58;;;;;;;34.77;14.45;98005.56;5093057;28;20020;-50
2022/05/30 08:09:58;;;;;;;6.53;1.58;;;;;;;35.34;14.03;98002.47;5092897;28;20066;-50
2022/05/30 08:12:24;;;;;;;16.67;2.08;;;;;;;35.57;13.84;98002.16;5092907;28;20390;-50
2022/05/30 08:14:50;;;;;;;9.02;1.90;;;;;;;36.10;13.52;98000.78;5092872;28;20468;-49
2022/05/30 08:17:15;;;;;;;14.88;3.47;;;;;;;36.35;13.19;98000.84;5092788;28;20131;-49
2022/05/30 08:19:41;;;;;;;13.48;2.97;;;;;;;36.44;13.14;98006.69;5092872;28;20016;-49
2022/05/30 08:22:10;;;;;;;10.57;2.30;;;;;;;36.31;13.20;98006.31;5091461;28;20024;-47
2022/05/30 08:24:38;;;;;;;7.93;2.28;;;;;;;36.63;13.22;98005.56;5092734;28;20028;-48
2022/05/30 08:27:04;;;;;;;8.38;2.53;;;;;;;37.17;13.01;98014.50;5091338;28;20032;-49
2022/05/30 08:29:30;;;;;;;10.82;2.30;;;;;;;37.77;12.38;98007.28;5092691;28;20024;-49
2022/05/30 08:31:56;;;;;;;40.22;3.75;;;;;;;37.81;12.49;98009.97;5092371;28;20054;-49
2022/05/30 08:34:22;;;;;;;8.63;2.30;;;;;;;38.19;11.94;98010.16;5091190;28;20022;-49
2022/05/30 08:36:50;;;;;;;9.00;1.85;;;;;;;38.77;11.54;98002.28;5092293;28;20040;-51
2022/05/30 08:42:04;;;;;;;12.32;2.05;;;;;;;39.06;11.86;98015.75;5092718;28;20523;-51
2022/05/30 08:44:30;;;;;;;6.90;1.38;;;;;;;38.31;12.05;98006.19;5092444;28;20013;-49
2022/05/30 08:46:59;;;;;;;6.85;1.50;;;;;;;37.35;12.71;98008.22;5091013;28;20026;-47
2022/05/30 08:49:42;;;;;;;13.43;1.90;;;;;;;37.66;12.45;98001.06;5092314;28;20555;-46
2022/05/30 08:52:41;;;;;;;9.63;1.87;;;;;;;37.69;12.43;98007.69;5092548;28;20028;-47
2022/05/30 08:55:26;;;;;;;10.20;2.28;;;;;;;37.49;12.77;98004.63;5090877;28;20111;-47
2022/05/30 08:58:01;;;;;;;5.55;1.65;;;;;;;37.58;12.37;98010.47;5092214;28;20031;-47
2022/05/30 09:00:40;;;;;;;10.18;1.75;;;;;;;37.81;11.96;98015.44;5092084;28;20032;-49
2022/05/30 09:03:18;;;;;;;11.88;2.30;;;;;;;38.05;12.07;98008.31;5090988;28;20024;-49
2022/05/30 09:06:13;;;;;;;11.80;2.03;;;;;;;37.72;12.34;98012.38;5090716;28;20405;-48
2022/05/30 09:08:42;;;;;;;20.30;3.03;;;;;;;37.40;12.26;98005.03;5088916;28;20505;-50
2022/05/30 09:11:31;;;;;;;12.60;2.28;;;;;;;37.60;12.71;98010.88;5092002;28;20028;-48
2022/05/30 09:14:03;;;;;;;7.40;2.85;;;;;;;37.06;12.69;98004.72;5091967;28;20028;-47
2022/05/30 09:16:29;;;;;;;16.70;2.67;;;;;;;36.26;12.98;98001.25;5091996;28;20032;-47
2022/05/30 09:18:56;;;;;;;21.27;2.53;;;;;;;35.97;13.23;98011.28;5091972;28;20542;-48
2022/05/30 09:21:26;;;;;;;13.40;2.72;;;;;;;35.29;13.65;98005.53;5091859;28;20028;-47
2022/05/30 09:23:52;;;;;;;26.17;3.67;;;;;;;34.89;13.92;98015.41;5092118;28;20040;-47
2022/05/30 09:26:28;;;;;;;29.02;3.45;;;;;;;34.47;14.15;98014.69;5090518;28;20028;-47
2022/05/30 09:29:02;;;;;;;10.25;2.10;;;;;;;34.27;14.36;98008.66;5091868;28;20029;-48
2022/05/30 09:32:00;;;;;;;24.45;3.67;;;;;;;33.70;15.20;98016.19;5091658;28;20040;-50
2022/05/30 09:34:39;;;;;;;15.95;2.65;;;;;;;32.78;16.01;98014.47;5088536;28;20076;-50
2022/05/30 09:37:05;;;;;;;10.27;2.28;;;;;;;32.77;15.87;98015.63;5091716;28;20020;-48
2022/05/30 09:39:44;;;;;;;8.20;1.88;;;;;;;32.74;15.48;98022.59;5091722;28;20026;-49
2022/05/30 09:42:23;;;;;;;6.18;1.50;;;;;;;33.28;14.99;98017.16;5091700;28;20028;-50
2022/05/30 09:44:52;;;;;;;13.57;2.88;;;;;;;33.86;14.51;98018.69;5090571;28;20103;-48
2022/05/30 09:47:22;;;;;;;12.95;1.90;;;;;;;34.21;14.20;98010.16;5091620;28;20016;-49
2022/05/30 09:50:08;;;;;;;10.98;1.77;;;;;;;34.78;13.84;98010.66;5091574;28;20111;-49
2022/05/30 09:52:37;;;;;;;9.35;1.98;;;;;;;34.96;13.68;98005.34;5091678;28;20091;-49
2022/05/30 09:55:37;;;;;;;16.25;2.28;;;;;;;34.91;13.91;98002.94;5091492;28;20082;-51
2022/05/30 09:58:05;;;;;;;7.40;1.67;;;;;;;34.76;13.79;98006.75;5071110;28;20127;-48
2022/05/30 10:00:37;;;;;;;12.65;2.53;;;;;;;34.85;14.08;98007.19;5091568;28;20039;-49
2022/05/30 10:03:12;;;;;;;19.40;2.08;;;;;;;35.28;13.85;98001.28;5091546;28;20085;-49
2022/05/30 10:05:43;;;;;;;9.85;1.85;;;;;;;35.92;13.25;98003.47;5091516;28;20055;-47
2022/05/30 10:08:27;;;;;;;13.20;2.30;;;;;;;36.06;13.31;98006.25;5091498;28;20038;-48
2022/05/30 10:10:56;;;;;;;13.85;2.35;;;;;;;36.09;12.97;98001.97;5091463;28;20032;-49
2022/05/30 10:13:40;;;;;;;6.82;1.38;;;;;;;35.46;13.04;98007.59;5094812;28;20030;-48
2022/05/30 10:16:12;;;;;;;19.98;2.85;;;;;;;34.77;14.17;98002.84;5093820;28;20081;-47
2022/05/30 10:18:55;;;;;;;9.10;2.15;;;;;;;34.61;14.00;98003.91;5095126;28;20093;-47
2022/05/30 10:21:31;;;;;;;6.70;2.03;;;;;;;34.72;13.75;98001.28;5093788;28;20055;-49
2022/05/30 10:30:35;;;;;;;4.57;2.25;;;;;;;34.54;13.70;97992.91;5095311;28;20055;-46
2022/05/30 10:33:22;;;;;;;8.52;2.88;;;;;;;34.63;13.76;98003.50;5094628;28;20437;-49
2022/05/30 10:36:18;;;;;;;6.03;1.92;;;;;;;35.35;13.05;98001.28;5093676;28;20028;-50
2022/05/30 10:38:59;;;;;;;11.57;2.42;;;;;;;35.94;12.82;97998.41;5094788;28;20036;-47
2022/05/30 10:41:42;;;;;;;5.75;1.40;;;;;;;35.96;12.60;97996.88;5094805;28;20024;-46
2022/05/30 10:44:29;;;;;;;7.47;1.52;;;;;;;35.90;12.58;98003.06;5094776;28;20062;-47
2022/05/30 10:47:07;;;;;;;3.25;1.17;;;;;;;35.59;12.58;98005.28;5094658;28;20024;-47
2022/05/30 10:49:37;;;;;;;7.63;1.48;;;;;;;35.40;12.70;98009.91;5094626;28;20481;-47
2022/05/30 10:52:32;;;;;;;11.43;1.60;;;;;;;35.24;13.22;98000.47;5094603;28;20024;-47
2022/05/30 10:55:02;;;;;;;;;;;;;;;35.59;12.70;98006.06;5094933;28;20052;-47
2022/05/30 10:57:38;;;;;;;3.55;1.30;;;;;;;35.36;12.69;98011.06;5094442;28;19957;-47
2022/05/30 11:00:09;;;;;;;3.40;1.40;;;;;;;35.24;12.37;98008.66;5094559;28;20020;-47
2022/05/30 11:03:12;;;;;;;4.50;1.25;;;;;;;35.19;12.93;98007.84;5094356;28;20082;-49
2022/05/30 11:05:56;;;;;;;5.05;1.70;;;;;;;35.06;13.08;98006.56;5092970;28;20055;-49
2022/05/30 11:08:32;;;;;;;2.50;1.10;;;;;;;35.06;13.01;98006.56;5094316;28;20519;-48
2022/05/30 11:11:13;;;;;;;5.03;1.20;;;;;;;34.81;12.95;97996.28;5094231;28;20028;-46
2022/05/30 11:13:53;;;;;;;5.45;1.30;;;;;;;34.72;13.05;98020.34;5094160;28;20028;-46
2022/05/30 11:16:39;;;;;;;5.85;1.50;;;;;;;35.24;13.10;98009.44;5092716;28;20124;-47
2022/05/30 11:19:24;;;;;;;8.73;1.50;;;;;;;35.44;12.97;98012.66;5094036;28;20409;-47
2022/05/30 11:22:43;;;;;;;4.82;1.25;;;;;;;35.59;12.67;98005.28;5093982;28;20135;-46
2022/05/30 11:25:15;;;;;;;7.35;1.38;;;;;;;34.95;12.77;98002.97;5083830;28;20064;-47
2022/05/30 11:28:02;;;;;;;7.43;1.50;;;;;;;34.99;12.88;98001.06;5092611;28;20122;-46
2022/05/30 11:30:56;;;;;;;5.30;1.15;;;;;;;35.39;12.59;98008.31;5093855;28;20027;-48
2022/05/30 11:34:01;;;;;;;6.67;1.50;;;;;;;35.45;12.15;98008.75;5093824;28;20040;-48
2022/05/30 11:36:57;;;;;;;4.70;1.52;;;;;;;35.74;12.31;98003.44;5093620;28;20073;-47
2022/05/30 11:39:47;;;;;;;6.63;1.42;;;;;;;36.43;12.10;97993.44;5093627;28;20493;-47
2022/05/30 11:42:36;;;;;;;7.10;1.65;;;;;;;36.52;12.05;97991.88;5093601;28;20039;-47
2022/05/30 11:45:38;;;;;;;6.85;1.50;;;;;;;36.30;12.18;97993.03;5093226;28;20103;-47
2022/05/30 11:48:35;;;;;;;11.05;1.60;;;;;;;36.62;12.30;97982.09;5070014;28;20078;-49
2022/05/30 11:51:10;;;;;;;8.30;1.75;;;;;;;36.03;12.48;97989.84;5093424;28;20028;-49
2022/05/30 11:54:10;;;;;;;18.95;2.10;;;;;;;35.90;12.85;97982.03;5093441;28;20024;-49
2022/05/30 11:56:48;;;;;;;6.75;1.20;;;;;;;35.57;13.18;97981.09;5091951;28;20020;-49
2022/05/30 11:59:19;;;;;;;6.90;1.55;;;;;;;35.28;13.23;97984.91;5093311;28;20024;-48
2022/05/30 12:01:50;;;;;;;4.32;1.23;;;;;;;34.94;13.08;97983.13;5093267;28;20035;-48
2022/05/30 12:04:56;;;;;;;9.40;2.75;;;;;;;34.92;13.22;97979.22;5093163;28;20150;-48
2022/05/30 12:07:40;;;;;;;6.70;1.20;;;;;;;35.25;13.56;97975.50;5093057;28;20089;-47
2022/05/30 12:10:18;;;;;;;5.57;1.60;;;;;;;35.83;12.88;97971.06;5093146;28;20088;-48
2022/05/30 12:12:53;;;;;;;8.20;1.67;;;;;;;35.25;13.48;97970.06;5093314;28;20043;-48